sensor_id;sensor_type;location;lat;lon;timestamp;temperature;humidity
48589;DHT22;34369;51.174;6.738;2023-08-31T00:02:25;12.10;70.90
48589;DHT22;34369;51.174;6.738;2023-08-31T00:04:57;12.10;70.90
48589;DHT22;34369;51.174;6.738;2023-08-31T00:07:30;12.20;70.80
48589;DHT22;34369;51.174;6.738;2023-08-31T00:10:02;12.20;70.80
48589;DHT22;34369;51.174;6.738;2023-08-31T00:12:39;12.20;70.80
48589;DHT22;34369;51.174;6.738;2023-08-31T00:15:13;12.20;70.70
48589;DHT22;34369;51.174;6.738;2023-08-31T00:17:45;12.20;70.60
48589;DHT22;34369;51.174;6.738;2023-08-31T00:20:17;12.20;70.50
48589;DHT22;34369;51.174;6.738;2023-08-31T00:22:49;12.20;70.50
48589;DHT22;34369;51.174;6.738;2023-08-31T00:25:22;12.20;70.40
48589;DHT22;34369;51.174;6.738;2023-08-31T00:27:55;12.20;70.50
48589;DHT22;34369;51.174;6.738;2023-08-31T00:30:30;12.20;70.40
48589;DHT22;34369;51.174;6.738;2023-08-31T00:33:02;12.10;70.30
48589;DHT22;34369;51.174;6.738;2023-08-31T00:35:35;12.20;70.30
48589;DHT22;34369;51.174;6.738;2023-08-31T00:38:07;12.20;70.30
48589;DHT22;34369;51.174;6.738;2023-08-31T00:40:41;12.10;70.30
48589;DHT22;34369;51.174;6.738;2023-08-31T00:43:15;12.10;70.20
48589;DHT22;34369;51.174;6.738;2023-08-31T00:45:51;12.10;70.20
48589;DHT22;34369;51.174;6.738;2023-08-31T00:48:27;12.10;70.20
48589;DHT22;34369;51.174;6.738;2023-08-31T00:51:00;12.00;70.20
48589;DHT22;34369;51.174;6.738;2023-08-31T00:53:33;12.00;70.20
48589;DHT22;34369;51.174;6.738;2023-08-31T00:56:06;12.00;70.20
48589;DHT22;34369;51.174;6.738;2023-08-31T00:58:38;12.00;70.20
48589;DHT22;34369;51.174;6.738;2023-08-31T01:01:20;11.90;70.10
48589;DHT22;34369;51.174;6.738;2023-08-31T01:04:03;11.90;70.30
48589;DHT22;34369;51.174;6.738;2023-08-31T01:06:50;11.90;70.40
48589;DHT22;34369;51.174;6.738;2023-08-31T01:09:32;11.90;70.30
48589;DHT22;34369;51.174;6.738;2023-08-31T01:12:10;11.90;70.20
48589;DHT22;34369;51.174;6.738;2023-08-31T01:14:47;11.80;70.20
48589;DHT22;34369;51.174;6.738;2023-08-31T01:17:23;11.80;70.30
48589;DHT22;34369;51.174;6.738;2023-08-31T01:19:59;11.80;70.30
48589;DHT22;34369;51.174;6.738;2023-08-31T01:22:39;11.70;70.20
48589;DHT22;34369;51.174;6.738;2023-08-31T01:25:16;11.70;70.30
48589;DHT22;34369;51.174;6.738;2023-08-31T01:27:50;11.70;70.30
48589;DHT22;34369;51.174;6.738;2023-08-31T01:30:24;11.70;70.30
48589;DHT22;34369;51.174;6.738;2023-08-31T01:32:56;11.60;70.30
48589;DHT22;34369;51.174;6.738;2023-08-31T01:35:32;11.60;70.40
48589;DHT22;34369;51.174;6.738;2023-08-31T01:38:06;11.60;70.50
48589;DHT22;34369;51.174;6.738;2023-08-31T01:40:46;11.60;70.50
48589;DHT22;34369;51.174;6.738;2023-08-31T01:43:22;11.60;70.60
48589;DHT22;34369;51.174;6.738;2023-08-31T01:45:55;11.50;70.50
48589;DHT22;34369;51.174;6.738;2023-08-31T01:48:29;11.50;70.60
48589;DHT22;34369;51.174;6.738;2023-08-31T01:51:03;11.50;70.70
48589;DHT22;34369;51.174;6.738;2023-08-31T01:53:36;11.50;70.70
48589;DHT22;34369;51.174;6.738;2023-08-31T01:56:11;11.50;70.70
48589;DHT22;34369;51.174;6.738;2023-08-31T01:58:44;11.50;70.70
48589;DHT22;34369;51.174;6.738;2023-08-31T02:01:16;11.40;70.80
48589;DHT22;34369;51.174;6.738;2023-08-31T02:03:48;11.40;70.80
48589;DHT22;34369;51.174;6.738;2023-08-31T02:06:22;11.40;70.90
48589;DHT22;34369;51.174;6.738;2023-08-31T02:08:54;11.40;70.90
48589;DHT22;34369;51.174;6.738;2023-08-31T02:11:27;11.40;70.80
48589;DHT22;34369;51.174;6.738;2023-08-31T02:14:05;11.40;70.80
48589;DHT22;34369;51.174;6.738;2023-08-31T02:16:38;11.40;70.70
48589;DHT22;34369;51.174;6.738;2023-08-31T02:19:10;11.40;70.70
48589;DHT22;34369;51.174;6.738;2023-08-31T02:21:42;11.40;70.70
48589;DHT22;34369;51.174;6.738;2023-08-31T02:24:15;11.30;70.60
48589;DHT22;34369;51.174;6.738;2023-08-31T02:26:49;11.30;70.50
48589;DHT22;34369;51.174;6.738;2023-08-31T02:29:21;11.30;70.50
48589;DHT22;34369;51.174;6.738;2023-08-31T02:31:54;11.30;70.50
48589;DHT22;34369;51.174;6.738;2023-08-31T02:34:26;11.20;70.60
48589;DHT22;34369;51.174;6.738;2023-08-31T02:36:58;11.20;70.60
48589;DHT22;34369;51.174;6.738;2023-08-31T02:39:32;11.20;70.60
48589;DHT22;34369;51.174;6.738;2023-08-31T02:42:07;11.20;70.70
48589;DHT22;34369;51.174;6.738;2023-08-31T02:44:39;11.20;70.80
48589;DHT22;34369;51.174;6.738;2023-08-31T02:47:12;11.20;70.80
48589;DHT22;34369;51.174;6.738;2023-08-31T02:49:44;11.10;70.80
48589;DHT22;34369;51.174;6.738;2023-08-31T02:52:18;11.10;70.90
48589;DHT22;34369;51.174;6.738;2023-08-31T02:54:50;11.10;71.00
48589;DHT22;34369;51.174;6.738;2023-08-31T02:57:24;11.10;71.10
48589;DHT22;34369;51.174;6.738;2023-08-31T02:59:58;11.10;71.10
48589;DHT22;34369;51.174;6.738;2023-08-31T03:02:31;11.10;71.10
48589;DHT22;34369;51.174;6.738;2023-08-31T03:05:05;11.10;71.10
48589;DHT22;34369;51.174;6.738;2023-08-31T03:07:37;11.10;71.10
48589;DHT22;34369;51.174;6.738;2023-08-31T03:10:10;11.10;71.20
48589;DHT22;34369;51.174;6.738;2023-08-31T03:12:44;11.00;71.20
48589;DHT22;34369;51.174;6.738;2023-08-31T03:15:16;11.00;71.20
48589;DHT22;34369;51.174;6.738;2023-08-31T03:17:48;11.10;71.20
48589;DHT22;34369;51.174;6.738;2023-08-31T03:20:21;11.00;71.20
48589;DHT22;34369;51.174;6.738;2023-08-31T03:22:53;11.00;71.20
48589;DHT22;34369;51.174;6.738;2023-08-31T03:25:27;11.00;71.20
48589;DHT22;34369;51.174;6.738;2023-08-31T03:28:01;11.00;71.10
48589;DHT22;34369;51.174;6.738;2023-08-31T03:30:33;11.00;71.20
48589;DHT22;34369;51.174;6.738;2023-08-31T03:33:06;11.00;71.10
48589;DHT22;34369;51.174;6.738;2023-08-31T03:35:41;11.00;71.20
48589;DHT22;34369;51.174;6.738;2023-08-31T03:38:13;11.00;71.20
48589;DHT22;34369;51.174;6.738;2023-08-31T03:40:53;11.00;71.10
48589;DHT22;34369;51.174;6.738;2023-08-31T03:43:27;11.00;71.20
48589;DHT22;34369;51.174;6.738;2023-08-31T03:46:00;11.00;71.10
48589;DHT22;34369;51.174;6.738;2023-08-31T03:48:33;11.00;71.10
48589;DHT22;34369;51.174;6.738;2023-08-31T03:51:07;11.00;71.10
48589;DHT22;34369;51.174;6.738;2023-08-31T03:53:39;11.00;71.20
48589;DHT22;34369;51.174;6.738;2023-08-31T03:56:12;11.00;71.20
48589;DHT22;34369;51.174;6.738;2023-08-31T03:58:46;11.00;71.20
48589;DHT22;34369;51.174;6.738;2023-08-31T04:01:18;11.00;71.20
48589;DHT22;34369;51.174;6.738;2023-08-31T04:03:50;11.00;71.20
48589;DHT22;34369;51.174;6.738;2023-08-31T04:06:22;11.00;71.30
48589;DHT22;34369;51.174;6.738;2023-08-31T04:08:54;11.00;71.30
48589;DHT22;34369;51.174;6.738;2023-08-31T04:11:26;11.00;71.40
48589;DHT22;34369;51.174;6.738;2023-08-31T04:14:00;11.00;71.60
48589;DHT22;34369;51.174;6.738;2023-08-31T04:16:32;11.00;71.50
48589;DHT22;34369;51.174;6.738;2023-08-31T04:19:06;11.00;71.60
48589;DHT22;34369;51.174;6.738;2023-08-31T04:21:40;11.00;71.60
48589;DHT22;34369;51.174;6.738;2023-08-31T04:24:12;11.00;71.70
48589;DHT22;34369;51.174;6.738;2023-08-31T04:26:45;10.90;71.70
48589;DHT22;34369;51.174;6.738;2023-08-31T04:29:20;11.00;71.80
48589;DHT22;34369;51.174;6.738;2023-08-31T04:31:53;11.00;71.80
48589;DHT22;34369;51.174;6.738;2023-08-31T04:34:26;11.00;71.80
48589;DHT22;34369;51.174;6.738;2023-08-31T04:36:58;11.00;71.70
48589;DHT22;34369;51.174;6.738;2023-08-31T04:39:31;11.00;71.70
48589;DHT22;34369;51.174;6.738;2023-08-31T04:42:04;11.00;71.90
48589;DHT22;34369;51.174;6.738;2023-08-31T04:44:39;11.00;71.80
48589;DHT22;34369;51.174;6.738;2023-08-31T04:47:12;11.00;71.90
48589;DHT22;34369;51.174;6.738;2023-08-31T04:49:44;11.00;71.90
48589;DHT22;34369;51.174;6.738;2023-08-31T04:52:24;11.00;72.10
48589;DHT22;34369;51.174;6.738;2023-08-31T04:54:56;11.00;72.10
48589;DHT22;34369;51.174;6.738;2023-08-31T04:57:28;11.00;72.20
48589;DHT22;34369;51.174;6.738;2023-08-31T05:00:03;11.00;72.20
48589;DHT22;34369;51.174;6.738;2023-08-31T05:02:39;11.00;72.10
48589;DHT22;34369;51.174;6.738;2023-08-31T05:05:14;11.00;72.10
48589;DHT22;34369;51.174;6.738;2023-08-31T05:07:49;11.00;72.20
48589;DHT22;34369;51.174;6.738;2023-08-31T05:10:24;11.00;72.20
48589;DHT22;34369;51.174;6.738;2023-08-31T05:13:00;11.00;72.20
48589;DHT22;34369;51.174;6.738;2023-08-31T05:15:36;11.00;72.20
48589;DHT22;34369;51.174;6.738;2023-08-31T05:18:09;11.00;72.10
48589;DHT22;34369;51.174;6.738;2023-08-31T05:20:44;11.00;72.20
48589;DHT22;34369;51.174;6.738;2023-08-31T05:23:19;11.10;72.30
48589;DHT22;34369;51.174;6.738;2023-08-31T05:25:52;11.10;72.30
48589;DHT22;34369;51.174;6.738;2023-08-31T05:28:24;11.10;72.20
48589;DHT22;34369;51.174;6.738;2023-08-31T05:31:00;11.10;72.20
48589;DHT22;34369;51.174;6.738;2023-08-31T05:33:36;11.10;72.30
48589;DHT22;34369;51.174;6.738;2023-08-31T05:36:08;11.10;72.40
48589;DHT22;34369;51.174;6.738;2023-08-31T05:38:40;11.10;72.30
48589;DHT22;34369;51.174;6.738;2023-08-31T05:41:13;11.10;72.30
48589;DHT22;34369;51.174;6.738;2023-08-31T05:43:48;11.20;72.30
48589;DHT22;34369;51.174;6.738;2023-08-31T05:46:23;11.20;72.30
48589;DHT22;34369;51.174;6.738;2023-08-31T05:48:56;11.20;72.30
48589;DHT22;34369;51.174;6.738;2023-08-31T05:51:28;11.20;72.50
48589;DHT22;34369;51.174;6.738;2023-08-31T05:54:01;11.30;72.50
48589;DHT22;34369;51.174;6.738;2023-08-31T05:56:34;11.30;72.60
48589;DHT22;34369;51.174;6.738;2023-08-31T05:59:06;11.40;72.70
48589;DHT22;34369;51.174;6.738;2023-08-31T06:01:41;11.40;72.60
48589;DHT22;34369;51.174;6.738;2023-08-31T06:04:15;11.40;72.70
48589;DHT22;34369;51.174;6.738;2023-08-31T06:06:47;11.40;72.70
48589;DHT22;34369;51.174;6.738;2023-08-31T06:09:22;11.50;72.70
48589;DHT22;34369;51.174;6.738;2023-08-31T06:11:54;11.50;72.70
48589;DHT22;34369;51.174;6.738;2023-08-31T06:14:41;11.60;72.80
48589;DHT22;34369;51.174;6.738;2023-08-31T06:17:16;11.60;73.00
48589;DHT22;34369;51.174;6.738;2023-08-31T06:19:48;11.70;72.80
48589;DHT22;34369;51.174;6.738;2023-08-31T06:22:35;11.70;72.80
48589;DHT22;34369;51.174;6.738;2023-08-31T06:25:25;11.80;72.90
48589;DHT22;34369;51.174;6.738;2023-08-31T06:28:01;11.90;72.80
48589;DHT22;34369;51.174;6.738;2023-08-31T06:30:42;11.90;72.80
48589;DHT22;34369;51.174;6.738;2023-08-31T06:33:19;12.00;72.60
48589;DHT22;34369;51.174;6.738;2023-08-31T06:35:52;12.00;72.70
48589;DHT22;34369;51.174;6.738;2023-08-31T06:38:25;12.10;72.70
48589;DHT22;34369;51.174;6.738;2023-08-31T06:40:59;12.20;72.70
48589;DHT22;34369;51.174;6.738;2023-08-31T06:43:32;12.20;72.50
48589;DHT22;34369;51.174;6.738;2023-08-31T06:46:04;12.30;72.50
48589;DHT22;34369;51.174;6.738;2023-08-31T06:48:38;12.40;72.30
48589;DHT22;34369;51.174;6.738;2023-08-31T06:51:12;12.40;72.20
48589;DHT22;34369;51.174;6.738;2023-08-31T06:53:45;12.50;72.20
48589;DHT22;34369;51.174;6.738;2023-08-31T06:56:19;12.50;72.10
48589;DHT22;34369;51.174;6.738;2023-08-31T06:58:52;12.60;72.00
48589;DHT22;34369;51.174;6.738;2023-08-31T07:01:24;12.70;71.90
48589;DHT22;34369;51.174;6.738;2023-08-31T07:03:59;12.70;71.80
48589;DHT22;34369;51.174;6.738;2023-08-31T07:06:39;12.80;71.70
48589;DHT22;34369;51.174;6.738;2023-08-31T07:09:17;12.90;71.50
48589;DHT22;34369;51.174;6.738;2023-08-31T07:11:50;13.00;71.20
48589;DHT22;34369;51.174;6.738;2023-08-31T07:14:23;13.00;71.10
48589;DHT22;34369;51.174;6.738;2023-08-31T07:16:58;13.10;70.90
48589;DHT22;34369;51.174;6.738;2023-08-31T07:19:52;13.10;70.70
48589;DHT22;34369;51.174;6.738;2023-08-31T07:22:25;13.30;70.70
48589;DHT22;34369;51.174;6.738;2023-08-31T07:24:57;13.30;70.60
48589;DHT22;34369;51.174;6.738;2023-08-31T07:27:29;13.40;70.60
48589;DHT22;34369;51.174;6.738;2023-08-31T07:30:03;13.50;70.50
48589;DHT22;34369;51.174;6.738;2023-08-31T07:32:37;13.50;70.50
48589;DHT22;34369;51.174;6.738;2023-08-31T07:35:14;13.60;70.10
48589;DHT22;34369;51.174;6.738;2023-08-31T07:37:47;13.60;69.90
48589;DHT22;34369;51.174;6.738;2023-08-31T07:40:19;13.70;70.00
48589;DHT22;34369;51.174;6.738;2023-08-31T07:42:51;13.80;69.90
48589;DHT22;34369;51.174;6.738;2023-08-31T07:45:25;13.90;70.10
48589;DHT22;34369;51.174;6.738;2023-08-31T07:47:58;14.00;70.20
48589;DHT22;34369;51.174;6.738;2023-08-31T07:50:33;14.10;70.20
48589;DHT22;34369;51.174;6.738;2023-08-31T07:53:07;14.20;70.00
48589;DHT22;34369;51.174;6.738;2023-08-31T07:55:51;14.30;70.10
48589;DHT22;34369;51.174;6.738;2023-08-31T07:58:26;14.50;69.30
48589;DHT22;34369;51.174;6.738;2023-08-31T08:00:58;14.70;70.40
48589;DHT22;34369;51.174;6.738;2023-08-31T08:03:30;15.00;69.90
48589;DHT22;34369;51.174;6.738;2023-08-31T08:06:04;15.30;69.00
48589;DHT22;34369;51.174;6.738;2023-08-31T08:08:37;15.60;68.40
48589;DHT22;34369;51.174;6.738;2023-08-31T08:11:10;15.90;67.50
48589;DHT22;34369;51.174;6.738;2023-08-31T08:13:44;16.10;66.80
48589;DHT22;34369;51.174;6.738;2023-08-31T08:16:16;16.20;66.30
48589;DHT22;34369;51.174;6.738;2023-08-31T08:18:50;16.30;65.50
48589;DHT22;34369;51.174;6.738;2023-08-31T08:21:24;16.40;65.40
48589;DHT22;34369;51.174;6.738;2023-08-31T08:24:05;16.40;65.40
48589;DHT22;34369;51.174;6.738;2023-08-31T08:26:56;16.50;65.40
48589;DHT22;34369;51.174;6.738;2023-08-31T08:29:42;16.70;65.80
48589;DHT22;34369;51.174;6.738;2023-08-31T08:32:15;17.00;66.00
48589;DHT22;34369;51.174;6.738;2023-08-31T08:34:49;17.30;65.30
48589;DHT22;34369;51.174;6.738;2023-08-31T08:37:25;17.50;64.40
48589;DHT22;34369;51.174;6.738;2023-08-31T08:39:57;17.80;63.70
48589;DHT22;34369;51.174;6.738;2023-08-31T08:42:30;18.00;64.00
48589;DHT22;34369;51.174;6.738;2023-08-31T08:45:06;18.10;63.70
48589;DHT22;34369;51.174;6.738;2023-08-31T08:47:40;18.40;63.30
48589;DHT22;34369;51.174;6.738;2023-08-31T08:50:13;18.80;62.80
48589;DHT22;34369;51.174;6.738;2023-08-31T08:52:47;19.20;63.60
48589;DHT22;34369;51.174;6.738;2023-08-31T08:55:19;19.60;62.70
48589;DHT22;34369;51.174;6.738;2023-08-31T08:57:52;20.20;60.40
48589;DHT22;34369;51.174;6.738;2023-08-31T09:00:25;20.60;59.30
48589;DHT22;34369;51.174;6.738;2023-08-31T09:02:59;21.00;58.30
48589;DHT22;34369;51.174;6.738;2023-08-31T09:05:33;21.30;56.70
48589;DHT22;34369;51.174;6.738;2023-08-31T09:08:08;21.60;56.70
48589;DHT22;34369;51.174;6.738;2023-08-31T09:10:44;21.90;55.70
48589;DHT22;34369;51.174;6.738;2023-08-31T09:13:18;22.00;54.80
48589;DHT22;34369;51.174;6.738;2023-08-31T09:15:50;22.10;54.10
48589;DHT22;34369;51.174;6.738;2023-08-31T09:18:24;22.00;53.00
48589;DHT22;34369;51.174;6.738;2023-08-31T09:20:57;21.90;52.40
48589;DHT22;34369;51.174;6.738;2023-08-31T09:23:30;21.70;52.20
48589;DHT22;34369;51.174;6.738;2023-08-31T09:26:04;21.50;52.00
48589;DHT22;34369;51.174;6.738;2023-08-31T09:28:40;21.30;52.50
48589;DHT22;34369;51.174;6.738;2023-08-31T09:31:15;21.00;52.90
48589;DHT22;34369;51.174;6.738;2023-08-31T09:33:52;20.90;53.40
48589;DHT22;34369;51.174;6.738;2023-08-31T09:36:24;20.70;53.40
48589;DHT22;34369;51.174;6.738;2023-08-31T09:39:00;20.60;53.40
48589;DHT22;34369;51.174;6.738;2023-08-31T09:41:32;20.40;53.70
48589;DHT22;34369;51.174;6.738;2023-08-31T09:44:16;20.30;53.60
48589;DHT22;34369;51.174;6.738;2023-08-31T09:47:03;20.10;53.00
48589;DHT22;34369;51.174;6.738;2023-08-31T09:49:38;20.00;52.70
48589;DHT22;34369;51.174;6.738;2023-08-31T09:52:14;19.90;53.70
48589;DHT22;34369;51.174;6.738;2023-08-31T09:55:12;19.70;53.50
48589;DHT22;34369;51.174;6.738;2023-08-31T09:57:48;19.60;53.80
48589;DHT22;34369;51.174;6.738;2023-08-31T10:00:37;19.50;54.30
48589;DHT22;34369;51.174;6.738;2023-08-31T10:03:12;19.40;54.70
48589;DHT22;34369;51.174;6.738;2023-08-31T10:05:47;19.40;54.30
48589;DHT22;34369;51.174;6.738;2023-08-31T10:08:20;19.30;54.70
48589;DHT22;34369;51.174;6.738;2023-08-31T10:10:58;19.20;55.00
48589;DHT22;34369;51.174;6.738;2023-08-31T10:13:33;19.20;54.60
48589;DHT22;34369;51.174;6.738;2023-08-31T10:16:09;19.20;54.20
48589;DHT22;34369;51.174;6.738;2023-08-31T10:18:42;19.20;54.50
48589;DHT22;34369;51.174;6.738;2023-08-31T10:21:16;19.20;54.60
48589;DHT22;34369;51.174;6.738;2023-08-31T10:23:50;19.20;54.80
48589;DHT22;34369;51.174;6.738;2023-08-31T10:26:27;19.20;55.00
48589;DHT22;34369;51.174;6.738;2023-08-31T10:29:03;19.20;55.10
48589;DHT22;34369;51.174;6.738;2023-08-31T10:31:37;19.20;55.10
48589;DHT22;34369;51.174;6.738;2023-08-31T10:34:09;19.20;55.70
48589;DHT22;34369;51.174;6.738;2023-08-31T10:36:45;19.30;55.70
48589;DHT22;34369;51.174;6.738;2023-08-31T10:39:19;19.40;55.50
48589;DHT22;34369;51.174;6.738;2023-08-31T10:41:57;19.40;54.40
48589;DHT22;34369;51.174;6.738;2023-08-31T10:44:34;19.40;53.70
48589;DHT22;34369;51.174;6.738;2023-08-31T10:47:08;19.40;53.70
48589;DHT22;34369;51.174;6.738;2023-08-31T10:49:50;19.30;53.70
48589;DHT22;34369;51.174;6.738;2023-08-31T10:52:24;19.20;53.80
48589;DHT22;34369;51.174;6.738;2023-08-31T10:54:59;19.20;54.30
48589;DHT22;34369;51.174;6.738;2023-08-31T10:57:40;19.10;54.30
48589;DHT22;34369;51.174;6.738;2023-08-31T11:00:15;19.10;54.20
48589;DHT22;34369;51.174;6.738;2023-08-31T11:03:26;19.00;54.00
48589;DHT22;34369;51.174;6.738;2023-08-31T11:06:05;19.00;54.30
48589;DHT22;34369;51.174;6.738;2023-08-31T11:08:42;19.00;54.50
48589;DHT22;34369;51.174;6.738;2023-08-31T11:11:20;19.00;54.50
48589;DHT22;34369;51.174;6.738;2023-08-31T11:14:01;19.00;54.30
48589;DHT22;34369;51.174;6.738;2023-08-31T11:16:33;19.00;54.30
48589;DHT22;34369;51.174;6.738;2023-08-31T11:19:06;19.00;53.60
48589;DHT22;34369;51.174;6.738;2023-08-31T11:21:40;19.00;53.90
48589;DHT22;34369;51.174;6.738;2023-08-31T11:24:12;18.90;54.20
48589;DHT22;34369;51.174;6.738;2023-08-31T11:26:44;18.80;54.20
48589;DHT22;34369;51.174;6.738;2023-08-31T11:29:21;18.80;54.70
48589;DHT22;34369;51.174;6.738;2023-08-31T11:31:57;18.60;55.10
48589;DHT22;34369;51.174;6.738;2023-08-31T11:34:31;18.50;56.00
48589;DHT22;34369;51.174;6.738;2023-08-31T11:37:04;18.40;56.80
48589;DHT22;34369;51.174;6.738;2023-08-31T11:39:37;18.30;57.20
48589;DHT22;34369;51.174;6.738;2023-08-31T11:42:11;18.30;57.30
48589;DHT22;34369;51.174;6.738;2023-08-31T11:44:46;18.30;57.80
48589;DHT22;34369;51.174;6.738;2023-08-31T11:47:21;18.40;58.80
48589;DHT22;34369;51.174;6.738;2023-08-31T11:49:56;18.50;59.90
48589;DHT22;34369;51.174;6.738;2023-08-31T11:52:29;18.60;58.70
48589;DHT22;34369;51.174;6.738;2023-08-31T11:55:02;18.80;58.30
48589;DHT22;34369;51.174;6.738;2023-08-31T11:57:48;19.00;58.60
48589;DHT22;34369;51.174;6.738;2023-08-31T12:00:27;19.20;57.10
48589;DHT22;34369;51.174;6.738;2023-08-31T12:02:59;19.30;56.10
48589;DHT22;34369;51.174;6.738;2023-08-31T12:05:44;19.40;55.90
48589;DHT22;34369;51.174;6.738;2023-08-31T12:08:24;19.60;54.30
48589;DHT22;34369;51.174;6.738;2023-08-31T12:11:00;19.70;53.20
48589;DHT22;34369;51.174;6.738;2023-08-31T12:13:34;19.80;54.00
48589;DHT22;34369;51.174;6.738;2023-08-31T12:16:13;20.00;53.50
48589;DHT22;34369;51.174;6.738;2023-08-31T12:18:46;20.10;52.60
48589;DHT22;34369;51.174;6.738;2023-08-31T12:21:19;20.10;52.90
48589;DHT22;34369;51.174;6.738;2023-08-31T12:23:52;20.20;52.80
48589;DHT22;34369;51.174;6.738;2023-08-31T12:26:25;20.30;52.40
48589;DHT22;34369;51.174;6.738;2023-08-31T12:28:57;20.40;52.00
48589;DHT22;34369;51.174;6.738;2023-08-31T12:31:31;20.50;52.30
48589;DHT22;34369;51.174;6.738;2023-08-31T12:34:04;20.70;51.40
48589;DHT22;34369;51.174;6.738;2023-08-31T12:36:37;20.80;51.00
48589;DHT22;34369;51.174;6.738;2023-08-31T12:39:11;21.00;51.40
48589;DHT22;34369;51.174;6.738;2023-08-31T12:41:44;21.10;50.90
48589;DHT22;34369;51.174;6.738;2023-08-31T12:44:18;21.30;50.30
48589;DHT22;34369;51.174;6.738;2023-08-31T12:46:53;21.50;49.60
48589;DHT22;34369;51.174;6.738;2023-08-31T12:49:26;21.50;49.00
48589;DHT22;34369;51.174;6.738;2023-08-31T12:51:59;21.50;48.60
48589;DHT22;34369;51.174;6.738;2023-08-31T12:54:36;21.50;48.90
48589;DHT22;34369;51.174;6.738;2023-08-31T12:57:08;21.40;48.50
48589;DHT22;34369;51.174;6.738;2023-08-31T12:59:41;21.40;49.60
48589;DHT22;34369;51.174;6.738;2023-08-31T13:02:15;21.40;49.50
48589;DHT22;34369;51.174;6.738;2023-08-31T13:04:47;21.50;49.70
48589;DHT22;34369;51.174;6.738;2023-08-31T13:07:19;21.50;49.80
48589;DHT22;34369;51.174;6.738;2023-08-31T13:09:53;21.70;50.20
48589;DHT22;34369;51.174;6.738;2023-08-31T13:12:25;21.90;48.80
48589;DHT22;34369;51.174;6.738;2023-08-31T13:14:58;22.00;48.60
48589;DHT22;34369;51.174;6.738;2023-08-31T13:17:32;22.20;48.00
48589;DHT22;34369;51.174;6.738;2023-08-31T13:20:13;22.30;47.90
48589;DHT22;34369;51.174;6.738;2023-08-31T13:22:45;22.50;47.40
48589;DHT22;34369;51.174;6.738;2023-08-31T13:25:17;22.60;47.70
48589;DHT22;34369;51.174;6.738;2023-08-31T13:27:50;22.80;47.40
48589;DHT22;34369;51.174;6.738;2023-08-31T13:30:22;22.90;46.80
48589;DHT22;34369;51.174;6.738;2023-08-31T13:32:57;23.00;45.90
48589;DHT22;34369;51.174;6.738;2023-08-31T13:35:29;23.10;45.90
48589;DHT22;34369;51.174;6.738;2023-08-31T13:38:02;23.10;46.40
48589;DHT22;34369;51.174;6.738;2023-08-31T13:40:35;23.10;45.90
48589;DHT22;34369;51.174;6.738;2023-08-31T13:43:09;23.10;45.50
48589;DHT22;34369;51.174;6.738;2023-08-31T13:45:55;23.20;45.10
48589;DHT22;34369;51.174;6.738;2023-08-31T13:48:41;23.20;45.90
48589;DHT22;34369;51.174;6.738;2023-08-31T13:51:15;23.10;45.20
48589;DHT22;34369;51.174;6.738;2023-08-31T13:53:47;23.20;45.30
48589;DHT22;34369;51.174;6.738;2023-08-31T13:56:20;23.20;45.70
48589;DHT22;34369;51.174;6.738;2023-08-31T13:58:53;23.10;45.50
48589;DHT22;34369;51.174;6.738;2023-08-31T14:01:25;23.10;44.90
48589;DHT22;34369;51.174;6.738;2023-08-31T14:04:01;23.10;45.40
48589;DHT22;34369;51.174;6.738;2023-08-31T14:06:34;22.90;45.60
48589;DHT22;34369;51.174;6.738;2023-08-31T14:09:07;22.80;46.70
48589;DHT22;34369;51.174;6.738;2023-08-31T14:11:40;22.80;46.80
48589;DHT22;34369;51.174;6.738;2023-08-31T14:14:12;22.70;46.50
48589;DHT22;34369;51.174;6.738;2023-08-31T14:16:45;22.60;46.20
48589;DHT22;34369;51.174;6.738;2023-08-31T14:19:19;22.50;46.00
48589;DHT22;34369;51.174;6.738;2023-08-31T14:21:52;22.50;46.00
48589;DHT22;34369;51.174;6.738;2023-08-31T14:24:24;22.50;45.60
48589;DHT22;34369;51.174;6.738;2023-08-31T14:26:57;22.50;45.90
48589;DHT22;34369;51.174;6.738;2023-08-31T14:30:08;22.40;46.20
48589;DHT22;34369;51.174;6.738;2023-08-31T14:32:41;22.30;45.80
48589;DHT22;34369;51.174;6.738;2023-08-31T14:35:18;22.20;46.20
48589;DHT22;34369;51.174;6.738;2023-08-31T14:37:54;22.10;46.30
48589;DHT22;34369;51.174;6.738;2023-08-31T14:40:27;22.10;45.70
48589;DHT22;34369;51.174;6.738;2023-08-31T14:42:59;22.10;46.20
48589;DHT22;34369;51.174;6.738;2023-08-31T14:45:32;22.20;45.60
48589;DHT22;34369;51.174;6.738;2023-08-31T14:48:05;22.20;45.30
48589;DHT22;34369;51.174;6.738;2023-08-31T14:50:42;22.20;45.40
48589;DHT22;34369;51.174;6.738;2023-08-31T14:53:14;22.10;45.10
48589;DHT22;34369;51.174;6.738;2023-08-31T14:56:45;22.10;46.00
48589;DHT22;34369;51.174;6.738;2023-08-31T14:59:18;22.00;45.20
48589;DHT22;34369;51.174;6.738;2023-08-31T15:01:50;21.90;45.50
48589;DHT22;34369;51.174;6.738;2023-08-31T15:04:23;21.70;45.60
48589;DHT22;34369;51.174;6.738;2023-08-31T15:06:58;21.50;45.80
48589;DHT22;34369;51.174;6.738;2023-08-31T15:09:31;21.40;45.70
48589;DHT22;34369;51.174;6.738;2023-08-31T15:12:04;21.30;45.70
48589;DHT22;34369;51.174;6.738;2023-08-31T15:14:37;21.20;46.00
48589;DHT22;34369;51.174;6.738;2023-08-31T15:17:11;21.10;46.40
48589;DHT22;34369;51.174;6.738;2023-08-31T15:19:43;21.10;46.90
48589;DHT22;34369;51.174;6.738;2023-08-31T15:22:18;21.00;47.00
48589;DHT22;34369;51.174;6.738;2023-08-31T15:24:58;20.90;46.90
48589;DHT22;34369;51.174;6.738;2023-08-31T15:27:31;20.80;47.20
48589;DHT22;34369;51.174;6.738;2023-08-31T15:30:09;20.80;47.50
48589;DHT22;34369;51.174;6.738;2023-08-31T15:32:42;20.70;47.70
48589;DHT22;34369;51.174;6.738;2023-08-31T15:41:59;20.50;48.50
48589;DHT22;34369;51.174;6.738;2023-08-31T15:44:31;20.50;47.90
48589;DHT22;34369;51.174;6.738;2023-08-31T15:47:05;20.40;48.20
48589;DHT22;34369;51.174;6.738;2023-08-31T15:49:37;20.40;48.20
48589;DHT22;34369;51.174;6.738;2023-08-31T15:52:10;20.40;48.00
48589;DHT22;34369;51.174;6.738;2023-08-31T15:54:44;20.30;48.10
48589;DHT22;34369;51.174;6.738;2023-08-31T15:57:17;20.30;48.30
48589;DHT22;34369;51.174;6.738;2023-08-31T15:59:49;20.20;49.30
48589;DHT22;34369;51.174;6.738;2023-08-31T16:02:22;20.20;49.70
48589;DHT22;34369;51.174;6.738;2023-08-31T16:04:56;20.20;50.30
48589;DHT22;34369;51.174;6.738;2023-08-31T16:07:29;20.10;50.40
48589;DHT22;34369;51.174;6.738;2023-08-31T16:10:03;20.10;51.10
48589;DHT22;34369;51.174;6.738;2023-08-31T16:12:36;20.00;51.10
48589;DHT22;34369;51.174;6.738;2023-08-31T16:15:09;20.10;51.50
48589;DHT22;34369;51.174;6.738;2023-08-31T16:17:42;20.10;51.50
48589;DHT22;34369;51.174;6.738;2023-08-31T16:20:15;20.10;51.40
48589;DHT22;34369;51.174;6.738;2023-08-31T16:22:52;20.10;51.40
48589;DHT22;34369;51.174;6.738;2023-08-31T16:25:30;20.20;51.30